Time;durP1;ratioP1;P1;durP2;ratioP2;P2;SDS_P1;SDS_P2;PMS_P1;PMS_P2;Temp;Humidity;BMP_temperature;BMP_pressure;BME280_temperature;BME280_humidity;BME280_pressure;Samples;Min_cycle;Max_cycle;Signal;HPM_P1;HPM_P2
2022/09/13 00:01:47;;;;;;;4.83;3.47;;;15.20;99.90;;;;;;5038554;28;20165;-87
2022/09/13 00:04:12;;;;;;;3.50;3.20;;;15.20;99.90;;;;;;5025103;28;20182;-86
2022/09/13 00:06:38;;;;;;;3.73;3.47;;;15.10;99.90;;;;;;5013526;28;20189;-86
2022/09/13 00:09:04;;;;;;;4.10;3.90;;;15.10;99.90;;;;;;5010997;28;20186;-88
2022/09/13 00:11:30;;;;;;;3.70;3.50;;;15.00;99.90;;;;;;5011829;28;20181;-87
2022/09/13 00:13:57;;;;;;;3.73;3.53;;;15.00;99.90;;;;;;5010265;28;20264;-85
2022/09/13 00:16:25;;;;;;;4.23;3.93;;;15.00;99.90;;;;;;5011843;28;20235;-86
2022/09/13 00:18:52;;;;;;;3.90;3.63;;;15.00;99.90;;;;;;5011694;28;20200;-88
2022/09/13 00:21:20;;;;;;;3.73;3.27;;;14.90;99.90;;;;;;5011495;28;20207;-86
2022/09/13 00:23:49;;;;;;;3.73;3.53;;;14.90;99.90;;;;;;5011272;28;20221;-87
2022/09/13 00:26:18;;;;;;;4.90;3.80;;;14.90;99.90;;;;;;5011215;28;20186;-86
2022/09/13 00:28:45;;;;;;;3.73;3.53;;;14.90;99.90;;;;;;5011089;28;20915;-85
2022/09/13 00:31:11;;;;;;;4.00;3.70;;;14.90;99.90;;;;;;5011109;28;20210;-85
2022/09/13 00:33:37;;;;;;;3.70;3.50;;;14.90;99.90;;;;;;5010963;28;20189;-86
2022/09/13 00:36:09;;;;;;;3.90;3.60;;;14.80;99.90;;;;;;5010958;28;20219;-85
2022/09/13 00:38:36;;;;;;;4.30;3.90;;;14.90;99.90;;;;;;5010496;28;20240;-85
2022/09/13 00:41:07;;;;;;;4.30;4.00;;;14.90;99.90;;;;;;5011296;28;20177;-86
2022/09/13 00:43:51;;;;;;;3.80;3.50;;;14.80;99.90;;;;;;5011492;28;20172;-86
2022/09/13 00:46:43;;;;;;;4.10;3.80;;;14.80;99.90;;;;;;5011550;28;20166;-85
2022/09/13 00:49:18;;;;;;;3.87;3.57;;;14.80;99.90;;;;;;5011023;28;20197;-85
2022/09/13 00:51:57;;;;;;;4.47;3.70;;;14.70;99.90;;;;;;5014107;28;20212;-85
2022/09/13 00:54:28;;;;;;;4.40;4.00;;;14.70;99.90;;;;;;5013119;28;20181;-86
2022/09/13 00:56:58;;;;;;;3.97;3.77;;;14.60;99.90;;;;;;5013629;28;20312;-87
2022/09/13 00:59:29;;;;;;;4.87;3.70;;;14.60;99.90;;;;;;5013384;28;20162;-87
2022/09/13 01:01:56;;;;;;;4.00;3.60;;;14.60;99.90;;;;;;5012235;28;20164;-87
2022/09/13 01:04:26;;;;;;;4.40;3.37;;;14.70;99.90;;;;;;5011675;28;20256;-86
2022/09/13 01:06:56;;;;;;;3.73;3.53;;;14.80;99.90;;;;;;5011208;28;20207;-89
2022/09/13 01:09:23;;;;;;;4.03;3.70;;;14.70;99.90;;;;;;5011003;28;20157;-90
2022/09/13 01:12:03;;;;;;;3.67;3.47;;;14.70;99.90;;;;;;5010761;28;20177;-86
2022/09/13 01:14:30;;;;;;;4.63;3.60;;;14.60;99.90;;;;;;5010719;28;20161;-87
2022/09/13 01:16:56;;;;;;;3.70;3.47;;;14.60;99.90;;;;;;5013542;28;20208;-85
2022/09/13 01:19:22;;;;;;;3.90;3.60;;;14.50;99.90;;;;;;5020746;28;20205;-86
2022/09/13 01:22:19;;;;;;;4.03;3.77;;;14.40;99.90;;;;;;5012242;28;20185;-87
2022/09/13 01:24:48;;;;;;;4.03;3.83;;;14.40;99.90;;;;;;5010412;28;20167;-87
2022/09/13 01:27:29;;;;;;;4.77;4.37;;;14.30;99.90;;;;;;5010745;28;20170;-86
2022/09/13 01:30:06;;;;;;;3.70;3.50;;;14.30;99.90;;;;;;5011618;28;20900;-89
2022/09/13 01:32:51;;;;;;;3.87;3.57;;;14.30;99.90;;;;;;5012166;28;20173;-86
2022/09/13 01:35:41;;;;;;;5.80;3.90;;;14.30;99.90;;;;;;5011372;28;20198;-85
2022/09/13 01:38:25;;;;;;;3.90;3.70;;;14.20;99.90;;;;;;5028923;28;20236;-87
2022/09/13 01:41:16;;;;;;;4.13;3.83;;;14.30;99.90;;;;;;5037397;28;20205;-86
2022/09/13 01:44:09;;;;;;;4.20;3.90;;;14.20;99.90;;;;;;5024291;28;20263;-86
2022/09/13 01:46:53;;;;;;;3.93;3.70;;;14.20;99.90;;;;;;5010810;28;20175;-87
2022/09/13 01:49:29;;;;;;;4.10;3.77;;;14.20;99.90;;;;;;5010459;28;20180;-90
2022/09/13 01:52:14;;;;;;;3.90;3.70;;;14.20;99.90;;;;;;5010382;28;20165;-88
2022/09/13 01:54:55;;;;;;;6.60;4.40;;;14.20;99.90;;;;;;5010330;28;20685;-85
2022/09/13 01:57:31;;;;;;;4.27;3.97;;;14.20;99.90;;;;;;5008651;28;20275;-86
2022/09/13 02:00:08;;;;;;;4.10;3.90;;;14.20;99.90;;;;;;5009950;28;20160;-85
2022/09/13 02:03:03;;;;;;;4.50;4.10;;;14.10;99.90;;;;;;5009145;28;20173;-87
2022/09/13 02:05:45;;;;;;;4.40;4.10;;;14.10;99.90;;;;;;5013836;28;20186;-87
2022/09/13 02:08:33;;;;;;;4.30;4.00;;;14.10;99.90;;;;;;5014626;28;20921;-87
2022/09/13 02:11:13;;;;;;;4.00;3.80;;;14.10;99.90;;;;;;5014260;28;20192;-86
2022/09/13 02:14:06;;;;;;;4.97;4.43;;;14.10;99.90;;;;;;5012460;28;20168;-86
2022/09/13 02:16:43;;;;;;;4.33;4.03;;;14.10;99.90;;;;;;5012320;28;20311;-87
2022/09/13 02:19:31;;;;;;;4.77;4.10;;;14.00;99.90;;;;;;5012306;28;20169;-86
2022/09/13 02:21:59;;;;;;;3.93;3.73;;;14.10;99.90;;;;;;5013383;28;20708;-86
2022/09/13 02:24:35;;;;;;;4.17;3.87;;;14.10;99.90;;;;;;5012059;28;20181;-85
2022/09/13 02:27:10;;;;;;;5.37;3.80;;;14.10;99.90;;;;;;5017323;28;20189;-85
2022/09/13 02:29:39;;;;;;;4.60;4.20;;;14.10;99.90;;;;;;5014807;28;20242;-86
2022/09/13 02:32:40;;;;;;;4.00;3.70;;;14.00;99.90;;;;;;5013470;28;20688;-87
2022/09/13 02:35:10;;;;;;;4.20;3.90;;;14.00;99.90;;;;;;4990601;28;20623;-85
2022/09/13 02:37:39;;;;;;;4.20;3.90;;;14.00;99.90;;;;;;4975449;28;20941;-86
2022/09/13 02:40:14;;;;;;;4.40;3.87;;;14.00;99.90;;;;;;4991340;28;20229;-86
2022/09/13 02:42:42;;;;;;;4.20;3.97;;;13.90;99.90;;;;;;4990947;28;20209;-85
2022/09/13 02:45:11;;;;;;;5.03;4.53;;;14.00;99.90;;;;;;4990906;28;20174;-85
2022/09/13 02:47:52;;;;;;;4.13;3.90;;;13.90;99.90;;;;;;4990688;28;20185;-85
2022/09/13 02:50:36;;;;;;;4.10;3.80;;;13.90;99.90;;;;;;4990486;28;20182;-85
2022/09/13 02:53:33;;;;;;;4.43;4.13;;;13.90;99.90;;;;;;4990673;28;20273;-86
2022/09/13 02:56:23;;;;;;;4.40;4.10;;;14.00;99.90;;;;;;4990675;28;20709;-85
2022/09/13 02:59:24;;;;;;;4.40;4.00;;;14.00;99.90;;;;;;4990856;28;20197;-85
2022/09/13 03:01:57;;;;;;;4.33;4.10;;;13.90;99.90;;;;;;4932912;29;20219;-87
2022/09/13 03:04:23;;;;;;;6.50;4.73;;;13.80;99.90;;;;;;4917361;29;20176;-87
2022/09/13 03:06:49;;;;;;;4.27;3.97;;;14.00;99.90;;;;;;4933919;29;20180;-85
2022/09/13 03:09:15;;;;;;;4.37;3.97;;;14.00;99.90;;;;;;4940698;28;20214;-85
2022/09/13 03:12:09;;;;;;;4.70;4.30;;;13.90;99.90;;;;;;4973676;28;20190;-86
2022/09/13 03:14:48;;;;;;;4.47;4.17;;;13.90;99.90;;;;;;4956433;28;20183;-89
2022/09/13 03:17:30;;;;;;;4.40;4.10;;;13.80;99.90;;;;;;4991870;28;20980;-88
2022/09/13 03:20:10;;;;;;;4.40;3.73;;;13.90;99.90;;;;;;4992794;28;20270;-86
2022/09/13 03:23:02;;;;;;;4.33;4.03;;;13.90;99.90;;;;;;4966107;28;20281;-84
2022/09/13 03:25:54;;;;;;;4.23;3.93;;;13.90;99.90;;;;;;4972432;28;20282;-86
2022/09/13 03:28:34;;;;;;;5.00;4.23;;;13.90;99.90;;;;;;4968841;28;20170;-85
2022/09/13 03:31:08;;;;;;;5.07;4.30;;;13.90;99.90;;;;;;4971915;28;20185;-87
2022/09/13 03:34:13;;;;;;;3.93;3.73;;;13.90;99.90;;;;;;4971626;28;20182;-85
2022/09/13 03:36:48;;;;;;;4.27;3.97;;;13.90;99.90;;;;;;4967303;28;20832;-84
2022/09/13 03:39:46;;;;;;;4.30;3.90;;;13.90;99.90;;;;;;5007778;28;20216;-87
2022/09/13 03:42:42;;;;;;;4.03;3.83;;;13.80;99.90;;;;;;5012051;28;20192;-88
2022/09/13 03:45:10;;;;;;;4.20;3.90;;;13.80;99.90;;;;;;4992805;28;20185;-84
2022/09/13 03:47:39;;;;;;;4.70;4.30;;;13.80;99.90;;;;;;5009478;28;20570;-87
2022/09/13 03:50:06;;;;;;;4.57;4.27;;;13.80;99.90;;;;;;5008880;28;20192;-86
2022/09/13 03:52:32;;;;;;;4.50;4.10;;;13.80;99.90;;;;;;5009330;28;20223;-85
2022/09/13 03:54:58;;;;;;;4.80;4.40;;;13.80;99.90;;;;;;5009115;28;20243;-85
2022/09/13 03:57:24;;;;;;;4.93;4.50;;;13.90;99.90;;;;;;5010999;28;20217;-85
2022/09/13 03:59:52;;;;;;;4.60;4.13;;;13.90;99.90;;;;;;5012336;28;20184;-85
2022/09/13 04:02:19;;;;;;;5.20;4.10;;;13.90;99.90;;;;;;4995458;28;20204;-85
2022/09/13 04:04:46;;;;;;;4.23;3.93;;;13.90;99.90;;;;;;4995143;28;20188;-85
2022/09/13 04:07:20;;;;;;;4.73;4.30;;;13.90;99.90;;;;;;4992585;28;20185;-86
2022/09/13 04:09:45;;;;;;;5.07;4.00;;;13.90;99.90;;;;;;5008681;28;20193;-87
2022/09/13 04:12:13;;;;;;;4.40;4.10;;;13.80;99.90;;;;;;5009213;28;20191;-88
2022/09/13 04:14:40;;;;;;;4.40;4.10;;;13.90;99.90;;;;;;5016521;28;20187;-87
2022/09/13 04:17:06;;;;;;;4.40;4.10;;;13.70;99.90;;;;;;5011909;28;20228;-87
2022/09/13 04:19:32;;;;;;;7.17;4.40;;;13.70;99.90;;;;;;4992475;28;20181;-85
2022/09/13 04:21:58;;;;;;;5.10;4.80;;;13.70;99.90;;;;;;5010075;28;20197;-89
2022/09/13 04:24:28;;;;;;;5.63;4.47;;;13.70;99.90;;;;;;5011528;28;20177;-88
2022/09/13 04:26:55;;;;;;;5.30;4.80;;;13.70;99.90;;;;;;5016701;28;20530;-88
2022/09/13 04:29:22;;;;;;;4.70;4.30;;;13.70;99.90;;;;;;5013816;28;20177;-90
2022/09/13 04:31:49;;;;;;;4.87;4.27;;;13.70;99.90;;;;;;5011489;28;20184;-89
2022/09/13 04:34:16;;;;;;;4.60;4.10;;;13.70;99.90;;;;;;5011787;28;20181;-89
2022/09/13 04:36:42;;;;;;;5.07;4.50;;;13.70;99.90;;;;;;5010993;28;20311;-88
2022/09/13 04:39:08;;;;;;;7.50;4.67;;;13.70;99.90;;;;;;5010976;28;20713;-89
2022/09/13 04:41:34;;;;;;;5.37;4.73;;;13.80;99.90;;;;;;5011183;28;20180;-88
2022/09/13 04:44:01;;;;;;;5.13;4.67;;;13.80;99.90;;;;;;5010648;28;20178;-89
2022/09/13 04:46:27;;;;;;;5.40;4.63;;;13.80;99.90;;;;;;5011324;28;20231;-90
2022/09/13 04:48:53;;;;;;;8.67;5.03;;;13.80;99.90;;;;;;5010775;28;20176;-88
2022/09/13 04:51:20;;;;;;;8.30;4.77;;;13.80;99.90;;;;;;5009298;28;20224;-87
2022/09/13 04:53:50;;;;;;;4.93;4.43;;;13.80;99.90;;;;;;5011154;28;20226;-87
2022/09/13 04:56:16;;;;;;;5.17;4.60;;;13.80;99.90;;;;;;5020434;28;20280;-89
2022/09/13 04:58:42;;;;;;;6.27;4.57;;;13.80;99.90;;;;;;5036676;28;20217;-87
2022/09/13 05:01:09;;;;;;;5.67;5.00;;;13.80;99.90;;;;;;5032035;28;20637;-87
2022/09/13 05:03:36;;;;;;;5.97;4.80;;;13.80;99.90;;;;;;5018256;28;20178;-88
2022/09/13 05:06:08;;;;;;;6.23;4.83;;;13.80;99.90;;;;;;5012130;28;20181;-87
2022/09/13 05:08:34;;;;;;;7.07;4.73;;;13.80;99.90;;;;;;5010967;28;20173;-87
2022/09/13 05:11:01;;;;;;;5.13;4.63;;;13.80;99.90;;;;;;5009983;28;20260;-88
2022/09/13 05:13:26;;;;;;;5.27;4.87;;;13.80;99.90;;;;;;5010381;28;20185;-86
2022/09/13 05:16:05;;;;;;;6.87;6.23;;;13.80;99.90;;;;;;5010368;28;20219;-88
2022/09/13 05:18:34;;;;;;;6.73;5.33;;;13.80;99.90;;;;;;5010632;28;20165;-89
2022/09/13 05:21:01;;;;;;;8.50;5.03;;;13.80;99.90;;;;;;5008922;28;20305;-87
2022/09/13 05:23:28;;;;;;;5.83;5.00;;;13.80;99.90;;;;;;5012653;28;20173;-87
2022/09/13 05:25:57;;;;;;;5.47;4.57;;;13.80;99.90;;;;;;5010260;28;20584;-90
2022/09/13 05:28:23;;;;;;;5.67;5.13;;;13.80;99.90;;;;;;5013148;28;20188;-88
2022/09/13 05:31:00;;;;;;;6.43;5.40;;;13.90;99.90;;;;;;5010533;28;20173;-87
2022/09/13 05:33:29;;;;;;;5.17;4.77;;;13.90;99.90;;;;;;5010139;28;20188;-87
2022/09/13 05:35:54;;;;;;;8.30;6.60;;;13.90;99.90;;;;;;5010188;28;20240;-85
2022/09/13 05:38:21;;;;;;;5.50;5.00;;;14.00;99.90;;;;;;5011858;28;20274;-85
2022/09/13 05:40:47;;;;;;;5.33;4.83;;;14.00;99.90;;;;;;5012952;28;20185;-86
2022/09/13 05:43:14;;;;;;;5.30;4.83;;;14.00;99.90;;;;;;5014230;28;20177;-86
2022/09/13 05:45:40;;;;;;;6.63;5.20;;;14.00;99.90;;;;;;5014288;28;20247;-84
2022/09/13 05:48:06;;;;;;;5.80;5.20;;;14.10;99.90;;;;;;5012950;28;20177;-85
2022/09/13 05:50:36;;;;;;;6.07;4.97;;;14.10;99.90;;;;;;5013910;28;20315;-84
2022/09/13 05:53:02;;;;;;;7.13;4.90;;;14.10;99.90;;;;;;5012438;28;20173;-86
2022/09/13 05:55:28;;;;;;;5.30;4.80;;;14.60;99.90;;;;;;5013905;28;20212;-85
2022/09/13 05:57:54;;;;;;;5.33;4.70;;;14.20;99.90;;;;;;5014830;28;20177;-85
2022/09/13 06:00:20;;;;;;;6.50;5.00;;;14.30;99.90;;;;;;5015087;28;20200;-86
2022/09/13 06:02:46;;;;;;;7.37;4.77;;;14.40;99.90;;;;;;5015613;28;20570;-86
2022/09/13 06:05:12;;;;;;;5.03;4.57;;;14.40;99.90;;;;;;5018966;28;20173;-87
2022/09/13 06:07:41;;;;;;;6.50;4.87;;;14.50;99.90;;;;;;5016593;28;20185;-87
2022/09/13 06:10:08;;;;;;;5.50;5.00;;;14.60;99.90;;;;;;5014935;28;20234;-85
2022/09/13 06:12:34;;;;;;;5.30;4.77;;;14.70;99.90;;;;;;5014884;28;20176;-86
2022/09/13 06:15:00;;;;;;;5.60;4.40;;;14.70;99.90;;;;;;5016691;28;20642;-86
2022/09/13 06:17:26;;;;;;;6.93;5.10;;;14.80;99.90;;;;;;5015794;28;20204;-84
2022/09/13 06:19:51;;;;;;;5.60;5.10;;;14.80;99.90;;;;;;5016894;28;20220;-85
2022/09/13 06:22:17;;;;;;;6.57;5.13;;;14.90;99.90;;;;;;5016637;28;20179;-88
2022/09/13 06:24:43;;;;;;;6.40;4.90;;;15.00;99.90;;;;;;5017019;28;20614;-86
2022/09/13 06:27:09;;;;;;;5.23;4.63;;;15.10;99.90;;;;;;5016787;28;20172;-85
2022/09/13 06:29:35;;;;;;;5.20;4.57;;;15.10;99.90;;;;;;5017624;28;20180;-84
2022/09/13 06:32:04;;;;;;;4.60;4.30;;;15.20;99.90;;;;;;5019386;28;20669;-85
2022/09/13 06:34:30;;;;;;;4.97;4.53;;;15.30;99.90;;;;;;5017619;28;20175;-86
2022/09/13 06:36:56;;;;;;;4.83;4.43;;;15.30;99.90;;;;;;5034588;28;20252;-87
2022/09/13 06:39:22;;;;;;;5.13;4.37;;;15.40;99.90;;;;;;5040498;28;20172;-85
2022/09/13 06:41:47;;;;;;;4.43;4.10;;;15.50;99.90;;;;;;5019037;28;20227;-85
2022/09/13 06:44:13;;;;;;;5.63;4.40;;;15.60;99.90;;;;;;5016696;28;20167;-85
2022/09/13 06:46:39;;;;;;;5.33;4.27;;;15.60;99.90;;;;;;5015411;28;20206;-84
2022/09/13 06:49:07;;;;;;;4.83;4.43;;;15.80;99.90;;;;;;5014745;28;20170;-87
2022/09/13 06:51:34;;;;;;;4.63;4.20;;;15.80;99.90;;;;;;5014652;28;20177;-87
2022/09/13 06:54:02;;;;;;;4.77;4.33;;;15.80;99.90;;;;;;5015662;28;20197;-85
2022/09/13 06:56:33;;;;;;;4.47;4.07;;;15.80;99.90;;;;;;5015482;28;20289;-84
2022/09/13 06:59:03;;;;;;;4.60;4.20;;;15.90;99.90;;;;;;5013909;28;20165;-87
2022/09/13 07:01:34;;;;;;;4.80;4.40;;;16.00;99.90;;;;;;5016101;28;20158;-87
2022/09/13 07:04:09;;;;;;;4.47;4.00;;;16.10;99.90;;;;;;5016423;28;20652;-86
2022/09/13 07:06:38;;;;;;;5.67;3.90;;;16.10;99.90;;;;;;5015755;28;20175;-87
2022/09/13 07:09:08;;;;;;;4.30;4.00;;;16.30;99.90;;;;;;5016171;28;20169;-86
2022/09/13 07:11:38;;;;;;;5.93;4.10;;;16.30;99.90;;;;;;5015809;28;20177;-86
2022/09/13 07:14:05;;;;;;;4.83;4.33;;;16.30;99.90;;;;;;5014536;28;20181;-87
2022/09/13 07:16:33;;;;;;;4.97;4.17;;;16.40;99.90;;;;;;5015583;28;20208;-86
2022/09/13 07:19:06;;;;;;;5.23;4.10;;;16.50;99.90;;;;;;5015201;28;20176;-85
2022/09/13 07:21:34;;;;;;;4.50;4.10;;;16.50;99.90;;;;;;5015783;28;20567;-87
2022/09/13 07:24:00;;;;;;;6.53;3.93;;;16.60;99.90;;;;;;5014437;28;20587;-86
2022/09/13 07:26:26;;;;;;;5.53;4.30;;;16.70;99.90;;;;;;5012424;28;20650;-87
2022/09/13 07:28:55;;;;;;;6.00;4.07;;;16.80;99.90;;;;;;5012508;28;20716;-86
2022/09/13 07:31:24;;;;;;;4.53;3.90;;;16.80;99.90;;;;;;5017586;28;20177;-86
2022/09/13 07:33:55;;;;;;;4.57;4.17;;;16.90;99.90;;;;;;5010878;28;20177;-87
2022/09/13 07:36:21;;;;;;;4.67;4.37;;;17.00;99.90;;;;;;5012033;28;20227;-86
2022/09/13 07:38:47;;;;;;;5.17;4.17;;;17.10;99.90;;;;;;5010869;28;20280;-87
2022/09/13 07:41:18;;;;;;;5.67;4.17;;;17.20;99.90;;;;;;5012978;28;20549;-86
2022/09/13 07:43:44;;;;;;;5.93;4.20;;;17.30;99.90;;;;;;5016674;28;20226;-87
2022/09/13 07:46:13;;;;;;;6.20;3.83;;;17.50;99.90;;;;;;5017549;28;20577;-86
2022/09/13 07:48:42;;;;;;;6.20;3.80;;;17.60;99.90;;;;;;5018874;28;20200;-87
2022/09/13 07:51:16;;;;;;;7.67;4.10;;;17.60;99.90;;;;;;5015264;28;20182;-87
2022/09/13 07:53:44;;;;;;;5.77;4.00;;;17.60;99.90;;;;;;5012632;28;20212;-87
2022/09/13 07:56:20;;;;;;;5.73;4.13;;;17.70;99.90;;;;;;5013250;28;20689;-86
2022/09/13 07:58:49;;;;;;;5.33;3.80;;;17.80;99.90;;;;;;5020298;28;20220;-87
2022/09/13 08:01:20;;;;;;;6.63;3.90;;;17.90;99.90;;;;;;5013485;28;20271;-87
2022/09/13 08:03:57;;;;;;;4.00;3.70;;;17.90;99.90;;;;;;5013621;28;20177;-87
2022/09/13 08:06:25;;;;;;;3.80;3.60;;;18.00;99.90;;;;;;5013600;28;20704;-86
2022/09/13 08:08:51;;;;;;;4.13;3.90;;;18.20;99.90;;;;;;5013662;28;20173;-87
2022/09/13 08:11:28;;;;;;;5.20;3.30;;;18.20;99.90;;;;;;5014061;28;20177;-87
2022/09/13 08:13:54;;;;;;;5.10;3.60;;;18.30;99.90;;;;;;5016651;28;20609;-87
2022/09/13 08:16:22;;;;;;;9.00;4.03;;;18.40;99.90;;;;;;5020163;28;20224;-87
2022/09/13 08:18:50;;;;;;;7.70;3.50;;;18.50;99.90;;;;;;5036365;28;20185;-85
2022/09/13 08:21:17;;;;;;;4.70;3.53;;;18.50;99.90;;;;;;5030042;28;20204;-88
2022/09/13 08:23:44;;;;;;;5.70;3.43;;;18.60;99.90;;;;;;5015181;28;20173;-85
2022/09/13 08:26:10;;;;;;;3.87;3.60;;;18.60;99.90;;;;;;5011675;28;20223;-85
2022/09/13 08:28:39;;;;;;;3.57;3.30;;;18.60;99.90;;;;;;5011414;28;20200;-86
2022/09/13 08:31:12;;;;;;;5.27;3.33;;;18.70;99.90;;;;;;5010983;28;20207;-86
2022/09/13 08:33:38;;;;;;;4.97;3.20;;;18.80;99.90;;;;;;5011318;28;20177;-85
2022/09/13 08:36:05;;;;;;;3.60;3.30;;;18.90;99.90;;;;;;5011187;28;20217;-86
2022/09/13 08:38:31;;;;;;;3.97;3.67;;;18.90;99.90;;;;;;5012877;28;20312;-85
2022/09/13 08:41:17;;;;;;;3.33;3.13;;;18.90;99.90;;;;;;5013817;28;20667;-86
2022/09/13 08:43:46;;;;;;;3.60;3.40;;;19.00;99.90;;;;;;5013497;28;20189;-86
2022/09/13 08:46:33;;;;;;;4.30;3.40;;;19.00;99.90;;;;;;5016372;28;20181;-86
2022/09/13 08:49:03;;;;;;;3.67;3.37;;;19.10;99.90;;;;;;5011680;28;20707;-86
2022/09/13 08:51:43;;;;;;;3.57;3.37;;;19.10;99.90;;;;;;5011352;28;20241;-86
2022/09/13 08:54:12;;;;;;;4.40;3.53;;;19.20;99.90;;;;;;5010993;28;20287;-85
2022/09/13 08:56:45;;;;;;;3.43;3.17;;;19.30;99.90;;;;;;5010685;28;20676;-86
2022/09/13 08:59:32;;;;;;;3.83;3.30;;;19.30;99.90;;;;;;5010748;28;20161;-85
2022/09/13 09:02:33;;;;;;;3.83;3.40;;;19.30;99.90;;;;;;5013991;28;20179;-85
2022/09/13 09:05:31;;;;;;;3.87;3.23;;;19.40;99.90;;;;;;5010506;28;20200;-86
2022/09/13 09:08:05;;;;;;;3.67;3.47;;;19.40;99.90;;;;;;5011512;28;20853;-86
2022/09/13 09:10:32;;;;;;;3.30;3.10;;;19.50;99.90;;;;;;5011923;28;20174;-85
2022/09/13 09:13:07;;;;;;;3.57;3.20;;;19.60;99.90;;;;;;5011275;28;20658;-85
2022/09/13 09:15:50;;;;;;;3.30;3.10;;;19.60;99.90;;;;;;5011500;28;20611;-86
2022/09/13 09:18:28;;;;;;;3.43;3.10;;;19.70;99.90;;;;;;5011633;28;20161;-86
2022/09/13 09:20:59;;;;;;;3.50;3.20;;;19.70;99.90;;;;;;5010740;28;20172;-86
2022/09/13 09:23:48;;;;;;;3.70;3.17;;;19.80;99.90;;;;;;5010867;28;20173;-87
2022/09/13 09:26:16;;;;;;;3.30;3.00;;;19.90;99.90;;;;;;5010316;28;20176;-85
2022/09/13 09:28:45;;;;;;;3.30;3.10;;;20.00;99.90;;;;;;5010276;28;20259;-86
2022/09/13 09:31:38;;;;;;;3.47;3.27;;;20.20;99.90;;;;;;5010762;28;20649;-85
2022/09/13 09:34:41;;;;;;;4.60;3.47;;;20.30;99.90;;;;;;5009600;28;20577;-86
2022/09/13 09:37:17;;;;;;;3.43;3.23;;;20.40;99.90;;;;;;5010458;28;20216;-87
2022/09/13 09:39:43;;;;;;;4.53;3.47;;;20.50;99.90;;;;;;5010647;28;20224;-85
2022/09/13 09:42:18;;;;;;;4.40;3.30;;;20.50;99.90;;;;;;5010653;28;20319;-86
2022/09/13 09:44:57;;;;;;;3.93;3.13;;;20.60;99.90;;;;;;5011473;28;20245;-87
2022/09/13 09:47:26;;;;;;;3.80;3.50;;;20.60;99.90;;;;;;5012695;28;20166;-86
2022/09/13 09:50:09;;;;;;;6.53;3.60;;;20.60;99.90;;;;;;5012523;28;20861;-86
2022/09/13 09:52:50;;;;;;;4.93;3.80;;;20.60;99.90;;;;;;5010315;28;20162;-86
2022/09/13 09:55:17;;;;;;;5.47;3.30;;;20.60;99.90;;;;;;5010848;28;20267;-87
2022/09/13 09:57:50;;;;;;;3.20;3.10;;;20.50;99.90;;;;;;5024483;28;20200;-87
2022/09/13 10:00:17;;;;;;;4.13;3.77;;;20.50;99.90;;;;;;5035473;28;20150;-86
2022/09/13 10:02:44;;;;;;;3.30;3.10;;;20.50;99.90;;;;;;5018499;28;20173;-87
2022/09/13 10:05:13;;;;;;;4.43;3.17;;;20.50;99.90;;;;;;5011681;28;20891;-85
2022/09/13 10:07:40;;;;;;;3.80;3.47;;;20.50;99.90;;;;;;5009030;28;20192;-87
2022/09/13 10:10:23;;;;;;;3.87;3.53;;;20.60;99.90;;;;;;5010003;28;20224;-86
2022/09/13 10:12:52;;;;;;;5.50;3.70;;;20.70;99.90;;;;;;5010132;28;20176;-87
2022/09/13 10:15:22;;;;;;;4.00;3.60;;;20.80;99.90;;;;;;5008916;28;20216;-87
2022/09/13 10:18:03;;;;;;;3.90;3.60;;;20.80;99.90;;;;;;5010043;28;20177;-87
2022/09/13 10:20:30;;;;;;;4.10;3.37;;;20.90;99.90;;;;;;5009834;28;20253;-86
2022/09/13 10:23:29;;;;;;;3.87;3.33;;;20.80;99.90;;;;;;5009833;28;20568;-85
2022/09/13 10:26:09;;;;;;;6.07;3.87;;;20.90;99.90;;;;;;4994310;28;20187;-86
2022/09/13 10:29:08;;;;;;;3.90;3.60;;;20.90;99.90;;;;;;5010827;28;20181;-85
2022/09/13 10:31:42;;;;;;;3.50;3.30;;;20.90;99.90;;;;;;4994104;28;20185;-85
2022/09/13 10:34:19;;;;;;;5.43;3.63;;;21.00;99.90;;;;;;5011052;28;20196;-85
2022/09/13 10:36:54;;;;;;;3.60;3.30;;;21.00;99.90;;;;;;5010362;28;20227;-85
2022/09/13 10:39:22;;;;;;;3.90;3.50;;;21.00;99.90;;;;;;5010820;28;20635;-85
2022/09/13 10:42:08;;;;;;;4.23;3.50;;;21.10;99.90;;;;;;5011671;28;20192;-85
2022/09/13 10:44:44;;;;;;;4.10;3.70;;;21.00;99.90;;;;;;5010911;28;20227;-85
2022/09/13 10:47:17;;;;;;;4.10;3.33;;;21.10;99.90;;;;;;5010820;28;20172;-85
2022/09/13 10:49:47;;;;;;;3.67;3.37;;;21.10;99.90;;;;;;5010491;28;20208;-85
2022/09/13 10:52:40;;;;;;;4.33;3.33;;;21.20;99.90;;;;;;5010618;28;20787;-87
2022/09/13 10:55:18;;;;;;;4.00;3.63;;;21.30;99.90;;;;;;5010839;28;20300;-88
2022/09/13 10:58:02;;;;;;;3.30;3.10;;;21.40;99.90;;;;;;5010138;28;20196;-86
2022/09/13 11:00:36;;;;;;;3.70;3.27;;;21.50;99.90;;;;;;5010523;28;20174;-86
2022/09/13 11:03:35;;;;;;;12.27;3.40;;;21.60;99.90;;;;;;5012786;28;20188;-87
2022/09/13 11:06:06;;;;;;;4.13;3.73;;;21.80;99.90;;;;;;5011506;28;20197;-86
2022/09/13 11:08:53;;;;;;;3.93;3.23;;;22.10;99.90;;;;;;5012746;28;20274;-86
2022/09/13 11:11:46;;;;;;;4.10;3.20;;;22.10;99.90;;;;;;5013078;28;20189;-87
2022/09/13 11:14:38;;;;;;;4.50;3.60;;;22.30;99.90;;;;;;5012750;28;20177;-86
2022/09/13 11:17:25;;;;;;;3.30;2.93;;;22.40;99.90;;;;;;5010941;28;20212;-85
2022/09/13 11:20:14;;;;;;;3.77;3.00;;;22.50;99.90;;;;;;5012583;28;20161;-86
2022/09/13 11:23:03;;;;;;;3.23;3.03;;;22.60;99.90;;;;;;5011521;28;20169;-86
2022/09/13 11:26:07;;;;;;;2.93;2.83;;;22.60;99.90;;;;;;5012681;28;20189;-86
2022/09/13 11:28:47;;;;;;;3.25;3.05;;;22.80;99.90;;;;;;5010924;28;20189;-86
2022/09/13 11:31:28;;;;;;;6.20;2.92;;;23.10;99.70;;;;;;5012330;28;20591;-87
2022/09/13 11:34:00;;;;;;;3.83;3.17;;;23.30;99.10;;;;;;5010722;28;20222;-86
2022/09/13 11:36:38;;;;;;;4.22;2.90;;;23.30;99.20;;;;;;5023438;28;20223;-88
2022/09/13 11:39:29;;;;;;;3.03;2.90;;;23.50;99.10;;;;;;5037646;28;20228;-86
2022/09/13 11:42:15;;;;;;;4.32;2.95;;;23.60;99.30;;;;;;5017890;28;20169;-87
2022/09/13 11:44:50;;;;;;;2.88;2.65;;;23.60;98.10;;;;;;5012397;28;20170;-88
2022/09/13 11:47:29;;;;;;;2.92;2.60;;;23.60;98.30;;;;;;5013045;28;20165;-87
2022/09/13 11:50:20;;;;;;;2.85;2.40;;;23.80;98.50;;;;;;5012232;28;20157;-86
2022/09/13 11:53:04;;;;;;;3.67;2.67;;;24.00;98.40;;;;;;5011835;28;20169;-87
2022/09/13 11:55:41;;;;;;;3.20;2.65;;;24.10;97.70;;;;;;5011875;28;20260;-86
2022/09/13 11:58:20;;;;;;;4.82;3.05;;;24.20;98.20;;;;;;5012106;28;20212;-87
2022/09/13 12:00:52;;;;;;;3.00;2.70;;;24.20;97.70;;;;;;5013028;28;20157;-88
2022/09/13 12:03:42;;;;;;;4.57;2.83;;;24.10;97.40;;;;;;5012183;28;20157;-87
2022/09/13 12:06:19;;;;;;;5.35;3.00;;;24.10;98.10;;;;;;5014957;28;20161;-88
2022/09/13 12:08:54;;;;;;;2.75;2.65;;;24.20;97.60;;;;;;5012967;28;20165;-87
2022/09/13 12:11:38;;;;;;;2.60;2.50;;;24.20;97.10;;;;;;5013405;28;20161;-87
2022/09/13 12:14:14;;;;;;;2.58;2.45;;;24.00;96.80;;;;;;5013419;28;20157;-87
2022/09/13 12:16:49;;;;;;;4.57;2.30;;;24.00;96.90;;;;;;5013525;28;20576;-88
2022/09/13 12:19:48;;;;;;;2.38;2.20;;;24.20;97.10;;;;;;5013896;28;20162;-87
2022/09/13 12:22:15;;;;;;;2.47;2.38;;;24.20;96.30;;;;;;5013154;28;20196;-87
2022/09/13 12:24:50;;;;;;;3.58;2.70;;;24.30;96.40;;;;;;5013864;28;20207;-87
2022/09/13 12:27:40;;;;;;;4.65;2.75;;;24.30;96.30;;;;;;5010004;28;20165;-86
2022/09/13 12:30:13;;;;;;;2.88;2.67;;;24.30;96.60;;;;;;5011722;28;20176;-86
2022/09/13 12:32:39;;;;;;;8.00;3.05;;;24.40;96.80;;;;;;5016710;28;20157;-85
2022/09/13 12:35:13;;;;;;;3.83;3.20;;;24.40;96.70;;;;;;5014159;28;20177;-86
2022/09/13 12:38:12;;;;;;;4.70;3.83;;;24.60;97.20;;;;;;5012837;28;20199;-86
2022/09/13 12:41:03;;;;;;;2.83;2.63;;;24.70;97.60;;;;;;5011479;28;20185;-87
2022/09/13 12:44:02;;;;;;;7.10;3.15;;;24.80;97.20;;;;;;5011081;28;20169;-87
2022/09/13 12:46:53;;;;;;;2.45;2.35;;;24.80;97.10;;;;;;5009586;28;20169;-87
2022/09/13 12:49:24;;;;;;;4.03;2.70;;;24.80;96.40;;;;;;5012508;28;20197;-87
2022/09/13 12:51:56;;;;;;;2.92;2.47;;;24.80;96.30;;;;;;5012264;28;20180;-87
2022/09/13 12:54:43;;;;;;;3.83;3.17;;;24.70;95.60;;;;;;5011242;28;20260;-86
2022/09/13 12:57:09;;;;;;;4.93;2.85;;;24.60;95.80;;;;;;5010887;28;20201;-87
2022/09/13 12:59:57;;;;;;;2.85;2.60;;;24.60;95.80;;;;;;5010513;28;20633;-88
2022/09/13 13:02:28;;;;;;;2.75;2.50;;;24.70;95.80;;;;;;5010702;28;20244;-89
2022/09/13 13:05:01;;;;;;;4.53;2.72;;;24.80;96.30;;;;;;5010481;28;20167;-87
2022/09/13 13:07:35;;;;;;;2.95;2.45;;;24.90;96.30;;;;;;5009537;28;20193;-88
2022/09/13 13:10:01;;;;;;;2.88;2.67;;;25.00;96.70;;;;;;5011262;28;20162;-86
2022/09/13 13:12:33;;;;;;;4.72;2.50;;;25.00;96.10;;;;;;5016616;28;20169;-88
2022/09/13 13:15:21;;;;;;;2.60;2.40;;;25.00;95.40;;;;;;5030545;28;20174;-88
2022/09/13 13:17:49;;;;;;;2.83;2.50;;;25.00;95.50;;;;;;5017060;28;20216;-86
2022/09/13 13:20:37;;;;;;;2.42;2.25;;;25.00;95.80;;;;;;5017570;28;20172;-87
2022/09/13 13:23:22;;;;;;;3.60;2.20;;;25.00;95.40;;;;;;5012183;28;20194;-89
2022/09/13 13:26:06;;;;;;;2.42;2.33;;;25.00;95.20;;;;;;5009527;28;20192;-87